sensor_id;sensor_type;location;lat;lon;timestamp;pressure;altitude;pressure_sealevel;temperature;humidity
31162;BME280;17796;49.296;-117.656;2022-10-16T00:10:12;96800;;;16.94049;40.91264
31162;BME280;17796;49.296;-117.656;2022-10-16T00:25:16;96800;;;16.12293;42.80096
31162;BME280;17796;49.296;-117.656;2022-10-16T00:40:20;96800;;;15.22185;43.74887
31162;BME280;17796;49.296;-117.656;2022-10-16T00:55:23;96800;;;14.65046;44.87872
31162;BME280;17796;49.296;-117.656;2022-10-16T01:10:30;96800;;;14.00316;45.78192
31162;BME280;17796;49.296;-117.656;2022-10-16T01:25:44;96800;;;13.333;46.8692
31162;BME280;17796;49.296;-117.656;2022-10-16T01:41:00;96900;;;13.02683;47.34662
31162;BME280;17796;49.296;-117.656;2022-10-16T01:56:09;96900;;;12.38589;48.5933
31162;BME280;17796;49.296;-117.656;2022-10-16T02:11:16;96900;;;11.89138;50.00343
31162;BME280;17796;49.296;-117.656;2022-10-16T02:26:27;96900;;;11.54646;50.69028
31162;BME280;17796;49.296;-117.656;2022-10-16T02:41:33;96900;;;11.374;50.50478
31162;BME280;17796;49.296;-117.656;2022-10-16T02:56:37;96900;;;11.03893;52.31965
31162;BME280;17796;49.296;-117.656;2022-10-16T03:11:41;96900;;;10.65241;52.62919
31162;BME280;17796;49.296;-117.656;2022-10-16T03:26:44;97000;;;10.44153;54.65106
31162;BME280;17796;49.296;-117.656;2022-10-16T03:41:48;97000;;;9.618;57.48729
31162;BME280;17796;49.296;-117.656;2022-10-16T03:56:52;97000;;;9.75266;57.53807
31162;BME280;17796;49.296;-117.656;2022-10-16T04:11:55;97000;;;9.65134;54.04297
31162;BME280;17796;49.296;-117.656;2022-10-16T04:26:59;97000;;;9.39822;55.77599
31162;BME280;17796;49.296;-117.656;2022-10-16T04:42:03;97000;;;9.15558;57.72538
31162;BME280;17796;49.296;-117.656;2022-10-16T04:57:06;97000;;;8.952;56.53272
31162;BME280;17796;49.296;-117.656;2022-10-16T05:12:10;97100;;;8.38859;59.1028
31162;BME280;17796;49.296;-117.656;2022-10-16T05:27:13;97100;;;8.20089;59.49681
31162;BME280;17796;49.296;-117.656;2022-10-16T05:42:17;97100;;;8.27076;57.87665
31162;BME280;17796;49.296;-117.656;2022-10-16T05:57:21;97100;;;7.91029;59.94123
31162;BME280;17796;49.296;-117.656;2022-10-16T06:12:24;97100;;;8.01224;59.85681
31162;BME280;17796;49.296;-117.656;2022-10-16T06:27:29;97100;;;7.97445;57.88573
31162;BME280;17796;49.296;-117.656;2022-10-16T06:42:32;97100;;;7.41327;61.44091
31162;BME280;17796;49.296;-117.656;2022-10-16T06:57:36;97100;;;6.90862;62.91916
31162;BME280;17796;49.296;-117.656;2022-10-16T07:12:40;97100;;;7.21509;62.17798
31162;BME280;17796;49.296;-117.656;2022-10-16T07:27:43;97100;;;6.98675;62.8846
31162;BME280;17796;49.296;-117.656;2022-10-16T07:42:47;97100;;;7.00294;60.42041
31162;BME280;17796;49.296;-117.656;2022-10-16T07:57:50;97100;;;6.62533;63.61032
31162;BME280;17796;49.296;-117.656;2022-10-16T08:12:54;97200;;;6.63486;61.65552
31162;BME280;17796;49.296;-117.656;2022-10-16T08:27:57;97200;;;6.49893;61.32501
31162;BME280;17796;49.296;-117.656;2022-10-16T08:43:06;97200;;;5.92601;63.86929
31162;BME280;17796;49.296;-117.656;2022-10-16T08:58:26;97200;;;5.97301;63.33272
31162;BME280;17796;49.296;-117.656;2022-10-16T09:13:33;97200;;;6.06067;61.28475
31162;BME280;17796;49.296;-117.656;2022-10-16T09:28:45;97200;;;5.97047;63.36038
31162;BME280;17796;49.296;-117.656;2022-10-16T09:43:51;97200;;;5.71005;62.92268
31162;BME280;17796;49.296;-117.656;2022-10-16T09:58:58;97200;;;5.50966;65.7989
31162;BME280;17796;49.296;-117.656;2022-10-16T10:14:04;97200;;;5.12158;67.3264
31162;BME280;17796;49.296;-117.656;2022-10-16T10:29:10;97200;;;5.07902;66.76915
31162;BME280;17796;49.296;-117.656;2022-10-16T10:44:31;97200;;;5.10633;65.09619
31162;BME280;17796;49.296;-117.656;2022-10-16T10:59:53;97200;;;4.69856;66.32265
31162;BME280;17796;49.296;-117.656;2022-10-16T11:15:11;97200;;;4.93452;65.56216
31162;BME280;17796;49.296;-117.656;2022-10-16T11:30:18;97200;;;4.84687;66.01102
31162;BME280;17796;49.296;-117.656;2022-10-16T11:45:27;97200;;;4.65283;67.40513
31162;BME280;17796;49.296;-117.656;2022-10-16T12:00:39;97200;;;4.72047;65.45973
31162;BME280;17796;49.296;-117.656;2022-10-16T12:15:48;97200;;;4.48705;68.66662
31162;BME280;17796;49.296;-117.656;2022-10-16T12:30:53;97200;;;4.57979;66.72459
31162;BME280;17796;49.296;-117.656;2022-10-16T12:46:00;97200;;;4.38257;68.60381
31162;BME280;17796;49.296;-117.656;2022-10-16T13:01:07;97200;;;4.45593;67.1868
31162;BME280;17796;49.296;-117.656;2022-10-16T13:16:22;97200;;;4.34478;66.64239
31162;BME280;17796;49.296;-117.656;2022-10-16T13:31:33;97200;;;4.13391;68.07731
31162;BME280;17796;49.296;-117.656;2022-10-16T13:46:39;97200;;;4.38987;68.92517
31162;BME280;17796;49.296;-117.656;2022-10-16T14:01:43;97200;;;4.36828;67.3081
31162;BME280;17796;49.296;-117.656;2022-10-16T14:16:47;97200;;;4.54358;64.81685
31162;BME280;17796;49.296;-117.656;2022-10-16T14:31:54;97200;;;4.06944;68.41553
31162;BME280;17796;49.296;-117.656;2022-10-16T14:47:07;97200;;;4.43402;66.1335
31162;BME280;17796;49.296;-117.656;2022-10-16T15:02:18;97200;;;4.65156;68.70608
31162;BME280;17796;49.296;-117.656;2022-10-16T15:17:29;97200;;;6.01557;63.79124
31162;BME280;17796;49.296;-117.656;2022-10-16T15:32:33;97300;;;7.6702;61.47139
31162;BME280;17796;49.296;-117.656;2022-10-16T15:47:36;97200;;;9.28039;56.84389
31162;BME280;17796;49.296;-117.656;2022-10-16T16:02:40;97200;;;7.62764;62.34593
31162;BME280;17796;49.296;-117.656;2022-10-16T16:17:45;97200;;;9.39663;58.43212
31162;BME280;17796;49.296;-117.656;2022-10-16T16:32:48;97200;;;11.96665;52.70438
31162;BME280;17796;49.296;-117.656;2022-10-16T16:47:52;97200;;;14.00411;47.59218
31162;BME280;17796;49.296;-117.656;2022-10-16T17:02:55;97200;;;12.90582;49.20601
31162;BME280;17796;49.296;-117.656;2022-10-16T17:17:59;97200;;;14.03397;48.81618
31162;BME280;17796;49.296;-117.656;2022-10-16T17:33:03;97200;;;14.60377;45.61951
31162;BME280;17796;49.296;-117.656;2022-10-16T17:48:07;97200;;;15.59568;43.37493
31162;BME280;17796;49.296;-117.656;2022-10-16T18:03:10;97100;;;14.7937;45.35972
31162;BME280;17796;49.296;-117.656;2022-10-16T18:18:14;97100;;;16.82646;41.42884
31162;BME280;17796;49.296;-117.656;2022-10-16T18:33:18;97100;;;16.43642;41.72556
31162;BME280;17796;49.296;-117.656;2022-10-16T18:48:21;97100;;;15.65349;41.73352
31162;BME280;17796;49.296;-117.656;2022-10-16T19:03:25;97100;;;16.74293;40.24654
31162;BME280;17796;49.296;-117.656;2022-10-16T19:18:29;97000;;;17.54842;39.59733
31162;BME280;17796;49.296;-117.656;2022-10-16T19:33:33;97000;;;18.52354;36.9499
31162;BME280;17796;49.296;-117.656;2022-10-16T19:48:37;97000;;;19.60062;34.24649
31162;BME280;17796;49.296;-117.656;2022-10-16T20:03:42;97000;;;20.66184;32.98436
31162;BME280;17796;49.296;-117.656;2022-10-16T20:18:48;96900;;;21.31744;31.59569
31162;BME280;17796;49.296;-117.656;2022-10-16T20:33:53;96900;;;19.03968;34.67023
31162;BME280;17796;49.296;-117.656;2022-10-16T20:48:58;96900;;;19.38463;33.17938
31162;BME280;17796;49.296;-117.656;2022-10-16T21:04:03;96900;;;18.02613;36.39462
31162;BME280;17796;49.296;-117.656;2022-10-16T21:19:08;96900;;;17.47156;36.86532
31162;BME280;17796;49.296;-117.656;2022-10-16T21:34:12;96800;;;18.14873;37.02753
31162;BME280;17796;49.296;-117.656;2022-10-16T21:49:16;96800;;;17.0056;38.08695
31162;BME280;17796;49.296;-117.656;2022-10-16T22:04:20;96800;;;17.98738;35.46145
31162;BME280;17796;49.296;-117.656;2022-10-16T22:19:24;96800;;;19.30713;32.90299
31162;BME280;17796;49.296;-117.656;2022-10-16T22:34:28;96800;;;19.67209;32.69421
31162;BME280;17796;49.296;-117.656;2022-10-16T22:49:32;96800;;;20.37978;33.4414
31162;BME280;17796;49.296;-117.656;2022-10-16T23:04:35;96800;;;19.81629;34.06403
31162;BME280;17796;49.296;-117.656;2022-10-16T23:19:38;96800;;;18.77986;35.58003
31162;BME280;17796;49.296;-117.656;2022-10-16T23:34:42;96800;;;17.78315;37.72669
31162;BME280;17796;49.296;-117.656;2022-10-16T23:49:47;96800;;;16.98242;39.50018
